Time;durP1;ratioP1;P1;durP2;ratioP2;P2;SDS_P1;SDS_P2;PMS_P1;PMS_P2;Temp;Humidity;BMP_temperature;BMP_pressure;BME280_temperature;BME280_humidity;BME280_pressure;Samples;Min_cycle;Max_cycle;Signal;HPM_P1;HPM_P2
2022/10/13 00:00:38;;;;;;;25.02;11.20;;;6.90;99.90;;;;;;5083720;28;20052;-75
2022/10/13 00:03:05;;;;;;;29.20;10.30;;;7.00;99.90;;;;;;5065206;28;20061;-75
2022/10/13 00:05:33;;;;;;;20.65;9.15;;;7.00;99.90;;;;;;5061021;28;20120;-76
2022/10/13 00:08:01;;;;;;;21.35;10.02;;;6.90;99.90;;;;;;5050359;28;20139;-76
2022/10/13 00:10:35;;;;;;;29.48;10.30;;;7.00;99.90;;;;;;5065085;28;20412;-76
2022/10/13 00:13:02;;;;;;;41.25;11.40;;;7.00;99.90;;;;;;5069121;28;20367;-76
2022/10/13 00:15:30;;;;;;;27.58;10.27;;;7.00;99.90;;;;;;5071977;28;20053;-76
2022/10/13 00:17:57;;;;;;;24.98;10.40;;;6.90;99.90;;;;;;5054075;28;20048;-77
2022/10/13 00:20:24;;;;;;;27.33;10.68;;;6.90;99.90;;;;;;5070576;28;20051;-77
2022/10/13 00:22:51;;;;;;;28.27;11.32;;;6.90;99.90;;;;;;5071193;28;20135;-77
2022/10/13 00:25:19;;;;;;;34.40;12.35;;;6.90;99.90;;;;;;5068282;28;20464;-76
2022/10/13 00:27:48;;;;;;;33.20;13.27;;;6.90;99.90;;;;;;5072364;28;20147;-78
2022/10/13 00:30:15;;;;;;;30.88;11.63;;;6.80;99.90;;;;;;5068482;28;20429;-77
2022/10/13 00:32:43;;;;;;;31.00;11.25;;;6.80;99.90;;;;;;5063307;28;20505;-77
2022/10/13 00:35:10;;;;;;;30.55;10.75;;;6.80;99.90;;;;;;5058458;28;20052;-77
2022/10/13 00:37:38;;;;;;;32.15;10.85;;;6.80;99.90;;;;;;5053320;28;20083;-77
2022/10/13 00:40:07;;;;;;;30.35;10.02;;;6.80;99.90;;;;;;5063813;28;20090;-77
2022/10/13 00:42:34;;;;;;;26.88;10.05;;;6.80;99.90;;;;;;5053446;28;20072;-77
2022/10/13 00:45:21;;;;;;;23.35;8.85;;;6.80;99.90;;;;;;5037468;28;20053;-77
2022/10/13 00:47:52;;;;;;;26.15;9.23;;;6.80;99.90;;;;;;5053298;28;20052;-77
2022/10/13 00:50:24;;;;;;;20.73;8.52;;;6.80;99.90;;;;;;5068516;28;20070;-82
2022/10/13 00:52:56;;;;;;;16.30;7.70;;;6.80;99.90;;;;;;5044048;28;20044;-81
2022/10/13 00:55:32;;;;;;;23.20;9.75;;;6.80;99.90;;;;;;5052728;28;20521;-77
2022/10/13 00:58:02;;;;;;;17.70;9.18;;;6.70;99.90;;;;;;5057335;28;20052;-77
2022/10/13 01:00:32;;;;;;;18.38;8.80;;;6.70;99.90;;;;;;5066922;28;20053;-77
2022/10/13 01:03:01;;;;;;;18.65;9.80;;;6.70;99.90;;;;;;5050166;28;20095;-77
2022/10/13 01:05:29;;;;;;;18.20;9.15;;;6.70;99.90;;;;;;5053605;28;20478;-77
2022/10/13 01:07:57;;;;;;;16.15;8.05;;;6.70;99.90;;;;;;5058544;28;20071;-77
2022/10/13 01:10:34;;;;;;;15.02;8.45;;;6.70;99.90;;;;;;5040186;28;20156;-77
2022/10/13 01:13:09;;;;;;;17.60;8.00;;;6.70;99.90;;;;;;5052379;28;20045;-77
2022/10/13 01:15:45;;;;;;;13.43;8.10;;;6.70;99.90;;;;;;5062268;28;20049;-77
2022/10/13 01:18:19;;;;;;;13.10;8.93;;;6.70;99.90;;;;;;5070488;28;20094;-77
2022/10/13 01:21:11;;;;;;;16.00;9.05;;;6.60;99.90;;;;;;5063588;28;20059;-78
2022/10/13 01:24:17;;;;;;;15.38;8.07;;;6.60;99.90;;;;;;5053888;28;20095;-77
2022/10/13 01:27:08;;;;;;;12.55;7.45;;;6.50;99.90;;;;;;5059418;28;20048;-76
2022/10/13 01:30:08;;;;;;;26.77;8.52;;;6.40;99.90;;;;;;5068148;28;20044;-77
2022/10/13 01:32:48;;;;;;;23.98;7.97;;;6.40;99.90;;;;;;5061125;28;20053;-76
2022/10/13 01:35:21;;;;;;;26.67;8.10;;;6.40;99.90;;;;;;5057044;28;20048;-77
2022/10/13 01:37:57;;;;;;;34.90;7.43;;;6.50;99.90;;;;;;5070891;28;20139;-77
2022/10/13 01:40:28;;;;;;;27.30;7.70;;;6.50;99.90;;;;;;5063566;28;20564;-77
2022/10/13 01:43:01;;;;;;;23.90;6.93;;;6.50;99.90;;;;;;5050475;28;20118;-77
2022/10/13 01:45:35;;;;;;;25.50;8.10;;;6.60;99.90;;;;;;5067963;28;20045;-77
2022/10/13 01:48:05;;;;;;;34.75;7.60;;;6.60;99.90;;;;;;5071694;28;20469;-77
2022/10/13 01:50:33;;;;;;;42.70;7.68;;;6.60;99.90;;;;;;5058013;28;20548;-77
2022/10/13 01:53:03;;;;;;;29.55;8.93;;;6.60;99.90;;;;;;5069679;28;20079;-77
2022/10/13 01:55:31;;;;;;;45.67;10.70;;;6.50;99.90;;;;;;5066277;28;20049;-77
2022/10/13 01:57:58;;;;;;;35.30;9.77;;;6.50;99.90;;;;;;5051887;28;20048;-77
2022/10/13 02:00:26;;;;;;;47.58;9.32;;;6.40;99.90;;;;;;5055955;28;20080;-77
2022/10/13 02:03:05;;;;;;;46.20;9.07;;;6.50;99.90;;;;;;5065719;28;20158;-77
2022/10/13 02:05:47;;;;;;;41.45;8.77;;;6.40;99.90;;;;;;5071561;28;20068;-77
2022/10/13 02:08:24;;;;;;;37.38;9.68;;;6.40;99.90;;;;;;5070078;28;20072;-82
2022/10/13 02:10:58;;;;;;;27.65;7.78;;;6.40;99.90;;;;;;5064665;28;20051;-83
2022/10/13 02:13:28;;;;;;;30.95;7.65;;;6.40;99.90;;;;;;5069802;28;20045;-82
2022/10/13 02:16:00;;;;;;;35.50;7.15;;;6.40;99.90;;;;;;5065286;28;20409;-82
2022/10/13 02:18:33;;;;;;;40.55;8.13;;;6.40;99.90;;;;;;5055611;28;20055;-83
2022/10/13 02:21:01;;;;;;;32.22;8.52;;;6.40;99.90;;;;;;5048715;28;20049;-83
2022/10/13 02:23:30;;;;;;;25.55;7.47;;;6.40;99.90;;;;;;5068563;28;20049;-82
2022/10/13 02:25:59;;;;;;;24.27;6.50;;;6.30;99.90;;;;;;5082007;28;20056;-81
2022/10/13 02:28:26;;;;;;;17.10;6.15;;;6.30;99.90;;;;;;5060746;28;20053;-82
2022/10/13 02:30:54;;;;;;;14.10;6.32;;;6.30;99.90;;;;;;5056718;28;20040;-82
2022/10/13 02:33:21;;;;;;;12.65;6.22;;;6.20;99.90;;;;;;5067357;28;20098;-82
2022/10/13 02:35:50;;;;;;;24.33;6.97;;;6.20;99.90;;;;;;5068556;28;20072;-83
2022/10/13 02:38:17;;;;;;;20.80;6.82;;;6.20;99.90;;;;;;5074279;28;20056;-83
2022/10/13 02:40:44;;;;;;;14.98;6.45;;;6.20;99.90;;;;;;5067746;28;20420;-81
2022/10/13 02:43:11;;;;;;;30.73;6.65;;;6.10;99.90;;;;;;5062948;28;20055;-82
2022/10/13 02:45:38;;;;;;;23.85;6.53;;;6.10;99.90;;;;;;5054456;28;20057;-81
2022/10/13 02:48:06;;;;;;;31.60;7.60;;;6.20;99.90;;;;;;5056804;28;20048;-82
2022/10/13 02:50:33;;;;;;;16.08;6.22;;;6.20;99.90;;;;;;5062432;28;20544;-84
2022/10/13 02:53:02;;;;;;;22.38;7.22;;;6.10;99.90;;;;;;5071203;28;20056;-83
2022/10/13 02:55:29;;;;;;;31.58;8.15;;;6.10;99.90;;;;;;5059207;28;20136;-83
2022/10/13 02:57:56;;;;;;;26.10;6.60;;;6.10;99.90;;;;;;5080262;28;20061;-83
2022/10/13 03:00:25;;;;;;;20.80;6.25;;;6.10;99.90;;;;;;5063274;28;20051;-84
2022/10/13 03:02:52;;;;;;;25.58;7.35;;;6.10;99.90;;;;;;5047327;28;20045;-83
2022/10/13 03:05:20;;;;;;;11.95;5.57;;;6.10;99.90;;;;;;5067034;28;20512;-83
2022/10/13 03:07:48;;;;;;;17.30;6.53;;;6.10;99.90;;;;;;5052908;28;20139;-85
2022/10/13 03:10:17;;;;;;;29.60;7.68;;;6.10;99.90;;;;;;5053344;28;20053;-84
2022/10/13 03:12:44;;;;;;;35.92;7.03;;;6.10;99.90;;;;;;5060580;28;20144;-85
2022/10/13 03:15:11;;;;;;;28.40;7.75;;;6.10;99.90;;;;;;5053536;28;20501;-84
2022/10/13 03:17:39;;;;;;;32.80;7.45;;;6.10;99.90;;;;;;5061879;28;20111;-84
2022/10/13 03:20:07;;;;;;;33.10;7.63;;;6.10;99.90;;;;;;5064144;28;20454;-83
2022/10/13 03:22:35;;;;;;;17.30;7.95;;;6.10;99.90;;;;;;5071038;28;20044;-85
2022/10/13 03:25:02;;;;;;;20.73;6.47;;;6.10;99.90;;;;;;5070427;28;20047;-84
2022/10/13 03:27:32;;;;;;;14.15;6.20;;;6.20;99.90;;;;;;5052555;28;20065;-84
2022/10/13 03:29:59;;;;;;;19.75;7.75;;;6.20;99.90;;;;;;5061862;28;20067;-84
2022/10/13 03:32:26;;;;;;;20.75;6.93;;;6.20;99.90;;;;;;5068747;28;20052;-82
2022/10/13 03:34:53;;;;;;;18.13;7.43;;;6.10;99.90;;;;;;5054549;28;20060;-81
2022/10/13 03:37:21;;;;;;;14.95;6.28;;;6.10;99.90;;;;;;5067957;28;20041;-80
2022/10/13 03:39:48;;;;;;;20.70;6.70;;;6.10;99.90;;;;;;5044032;28;20099;-81
2022/10/13 03:42:16;;;;;;;18.67;7.15;;;6.10;99.90;;;;;;5066633;28;20053;-81
2022/10/13 03:44:46;;;;;;;18.98;7.43;;;6.10;99.90;;;;;;5066496;28;20043;-83
2022/10/13 03:47:13;;;;;;;17.17;7.55;;;6.10;99.90;;;;;;5064710;28;20122;-84
2022/10/13 03:49:40;;;;;;;15.98;7.43;;;6.10;99.90;;;;;;5080014;28;20143;-81
2022/10/13 03:52:08;;;;;;;19.35;8.35;;;6.10;99.90;;;;;;5074247;28;20500;-82
2022/10/13 03:54:35;;;;;;;19.25;8.23;;;6.10;99.90;;;;;;5072183;28;20169;-84
2022/10/13 03:57:03;;;;;;;16.35;7.20;;;6.10;99.90;;;;;;5073408;28;20102;-81
2022/10/13 03:59:30;;;;;;;18.98;7.03;;;6.10;99.90;;;;;;5070695;28;20059;-80
2022/10/13 04:01:59;;;;;;;10.00;6.28;;;6.00;99.90;;;;;;5096171;28;20048;-75
2022/10/13 04:04:26;;;;;;;16.00;7.07;;;6.00;99.90;;;;;;5068664;28;20059;-75
2022/10/13 04:06:56;;;;;;;18.45;6.90;;;6.00;99.90;;;;;;5055574;28;20055;-75
2022/10/13 04:09:23;;;;;;;18.02;5.78;;;6.00;99.90;;;;;;5067213;28;20572;-77
2022/10/13 04:11:51;;;;;;;13.85;5.70;;;6.00;99.90;;;;;;5070750;28;20130;-76
2022/10/13 04:14:19;;;;;;;13.68;5.63;;;6.00;99.90;;;;;;5063003;28;20769;-77
2022/10/13 04:16:47;;;;;;;10.93;5.95;;;6.00;99.90;;;;;;5050458;28;20052;-79
2022/10/13 04:19:16;;;;;;;9.98;5.25;;;6.00;99.90;;;;;;5072407;28;20049;-80
2022/10/13 04:21:44;;;;;;;11.90;5.63;;;6.00;99.90;;;;;;5078454;28;20044;-79
2022/10/13 04:24:13;;;;;;;12.82;6.15;;;6.00;99.90;;;;;;5075644;28;20053;-81
2022/10/13 04:26:41;;;;;;;15.95;6.20;;;6.00;99.90;;;;;;5075865;28;20084;-81
2022/10/13 04:29:10;;;;;;;16.40;6.78;;;6.00;99.90;;;;;;5070370;28;20049;-79
2022/10/13 04:31:37;;;;;;;12.52;5.75;;;6.00;99.90;;;;;;5072067;28;20220;-80
2022/10/13 04:34:08;;;;;;;17.50;7.45;;;6.00;99.90;;;;;;5061877;28;20531;-78
2022/10/13 04:36:37;;;;;;;15.30;7.45;;;6.00;99.90;;;;;;5067278;28;20071;-82
2022/10/13 04:39:05;;;;;;;17.58;7.00;;;6.00;99.90;;;;;;5068928;28;20558;-83
2022/10/13 04:41:34;;;;;;;11.73;5.80;;;6.00;99.90;;;;;;5074119;28;20080;-84
2022/10/13 04:44:04;;;;;;;11.43;6.20;;;6.00;99.90;;;;;;5077821;28;20041;-83
2022/10/13 04:46:32;;;;;;;19.70;6.70;;;6.00;99.90;;;;;;5070985;28;20076;-84
2022/10/13 04:48:59;;;;;;;14.60;5.88;;;6.00;99.90;;;;;;5069432;28;20040;-82
2022/10/13 04:51:33;;;;;;;12.30;5.55;;;6.00;99.90;;;;;;5075721;28;20067;-81
2022/10/13 04:54:04;;;;;;;12.60;6.05;;;6.00;99.90;;;;;;5074892;28;20635;-83
2022/10/13 04:56:32;;;;;;;19.00;6.53;;;6.10;99.90;;;;;;5076986;28;20144;-80
2022/10/13 04:59:05;;;;;;;;;;;6.10;99.90;;;;;;5072858;28;20448;-81
2022/10/13 05:01:35;;;;;;;14.70;6.95;;;6.10;99.90;;;;;;5062715;28;20541;-79
2022/10/13 05:04:06;;;;;;;32.75;9.45;;;6.10;99.90;;;;;;5064881;28;20424;-73
2022/10/13 05:06:37;;;;;;;12.77;8.18;;;6.00;99.90;;;;;;5072248;28;20500;-76
2022/10/13 05:09:06;;;;;;;19.38;8.32;;;6.00;99.90;;;;;;5067669;28;20044;-80
2022/10/13 05:11:33;;;;;;;20.23;8.82;;;5.90;99.90;;;;;;5073956;28;20059;-84
2022/10/13 05:14:01;;;;;;;13.25;5.55;;;5.80;99.90;;;;;;5065495;28;20047;-82
2022/10/13 05:16:30;;;;;;;15.93;8.60;;;5.70;99.90;;;;;;5071717;28;20055;-82
2022/10/13 05:18:57;;;;;;;18.27;8.98;;;5.70;99.90;;;;;;5072100;28;20190;-82
2022/10/13 05:21:26;;;;;;;16.85;8.88;;;5.70;99.90;;;;;;5070958;28;20047;-82
2022/10/13 05:23:54;;;;;;;19.35;10.23;;;5.70;99.90;;;;;;5070119;28;20080;-81
2022/10/13 05:26:27;;;;;;;19.75;8.77;;;5.60;99.90;;;;;;5071357;28;20223;-83
2022/10/13 05:28:55;;;;;;;;;;;5.60;99.90;;;;;;5073880;28;20060;-83
2022/10/13 05:31:25;;;;;;;19.80;8.80;;;5.60;99.90;;;;;;5069731;28;20508;-83
2022/10/13 05:33:54;;;;;;;10.52;6.00;;;5.50;99.90;;;;;;5070149;28;20752;-84
2022/10/13 05:36:25;;;;;;;17.33;9.32;;;5.50;99.90;;;;;;5070881;28;20053;-82
2022/10/13 05:38:54;;;;;;;17.52;8.23;;;5.50;99.90;;;;;;5072370;28;20712;-81
2022/10/13 05:41:24;;;;;;;19.25;10.23;;;5.50;99.90;;;;;;5071442;28;20059;-80
2022/10/13 05:43:56;;;;;;;20.25;9.52;;;5.50;99.90;;;;;;5072882;28;20047;-81
2022/10/13 05:46:23;;;;;;;16.38;8.55;;;5.50;99.90;;;;;;5077948;28;20049;-83
2022/10/13 05:48:50;;;;;;;16.83;9.90;;;5.50;99.90;;;;;;5075548;28;20055;-81
2022/10/13 05:51:22;;;;;;;15.80;8.85;;;5.50;99.90;;;;;;5052117;28;20053;-82
2022/10/13 05:54:04;;;;;;;11.20;7.45;;;5.40;99.90;;;;;;5056249;28;20083;-82
2022/10/13 05:56:36;;;;;;;14.25;8.57;;;5.50;99.90;;;;;;5075907;28;20056;-82
2022/10/13 05:59:07;;;;;;;12.93;9.02;;;5.50;99.90;;;;;;5075022;28;20080;-85
2022/10/13 06:01:39;;;;;;;12.93;7.90;;;5.50;99.90;;;;;;5078015;28;20040;-84
2022/10/13 06:04:10;;;;;;;15.15;7.78;;;5.50;99.90;;;;;;5075938;28;20048;-84
2022/10/13 06:06:40;;;;;;;13.52;7.88;;;5.60;99.90;;;;;;5067688;28;20106;-86
2022/10/13 06:09:08;;;;;;;15.52;8.32;;;5.60;99.90;;;;;;5076414;28;20071;-83
2022/10/13 06:11:36;;;;;;;13.70;8.45;;;5.60;99.90;;;;;;5076249;28;20063;-82
2022/10/13 06:14:04;;;;;;;13.02;8.18;;;5.60;99.90;;;;;;5075174;28;20045;-84
2022/10/13 06:16:35;;;;;;;10.15;6.70;;;5.60;99.90;;;;;;5079855;28;20143;-83
2022/10/13 06:19:04;;;;;;;12.60;7.22;;;5.70;99.90;;;;;;5053193;28;20086;-83
2022/10/13 06:21:31;;;;;;;13.63;8.13;;;5.80;99.90;;;;;;5049536;28;20532;-84
2022/10/13 06:24:00;;;;;;;14.80;9.95;;;5.90;99.90;;;;;;5072700;28;20048;-84
2022/10/13 06:26:27;;;;;;;21.92;9.70;;;6.00;99.90;;;;;;5073327;28;20056;-83
2022/10/13 06:28:56;;;;;;;18.58;7.88;;;6.20;99.90;;;;;;5053930;28;20464;-83
2022/10/13 06:31:23;;;;;;;19.33;8.23;;;6.20;99.90;;;;;;5056639;28;20124;-84
2022/10/13 06:33:54;;;;;;;17.92;8.77;;;6.30;99.90;;;;;;5073918;28;20101;-84
2022/10/13 06:36:22;;;;;;;18.17;8.93;;;6.40;99.90;;;;;;5072792;28;20055;-80
2022/10/13 06:38:49;;;;;;;17.55;9.07;;;6.40;99.90;;;;;;5072270;28;20114;-81
2022/10/13 06:41:19;;;;;;;13.57;7.50;;;6.50;99.90;;;;;;5070295;28;20416;-82
2022/10/13 06:43:47;;;;;;;19.10;7.50;;;6.60;99.90;;;;;;5072191;28;20048;-80
2022/10/13 06:46:19;;;;;;;9.60;5.82;;;6.70;99.90;;;;;;5073081;28;20044;-84
2022/10/13 06:48:50;;;;;;;13.68;6.82;;;6.80;99.90;;;;;;5106574;28;20052;-80
2022/10/13 06:51:18;;;;;;;15.10;6.55;;;6.90;99.90;;;;;;5062764;28;20125;-80
2022/10/13 06:53:45;;;;;;;16.00;7.10;;;7.00;99.90;;;;;;5054436;28;20040;-80
2022/10/13 06:56:13;;;;;;;12.23;7.22;;;7.10;99.90;;;;;;5071296;28;20048;-80
2022/10/13 06:58:41;;;;;;;12.68;5.90;;;7.20;99.90;;;;;;5068389;28;20063;-80
2022/10/13 07:01:13;;;;;;;11.90;7.13;;;7.30;99.90;;;;;;5070256;28;20102;-81
2022/10/13 07:03:42;;;;;;;18.13;7.43;;;7.40;99.90;;;;;;5055249;28;20051;-83
2022/10/13 07:06:10;;;;;;;9.90;6.25;;;7.50;99.90;;;;;;5072990;28;20094;-84
2022/10/13 07:08:38;;;;;;;15.80;7.15;;;7.70;99.90;;;;;;5071604;28;20067;-83
2022/10/13 07:11:11;;;;;;;13.90;6.85;;;8.50;99.90;;;;;;5078329;28;20045;-83
2022/10/13 07:13:38;;;;;;;17.80;6.63;;;9.50;99.90;;;;;;5058079;28;20053;-82
2022/10/13 07:16:07;;;;;;;14.00;6.18;;;9.80;99.90;;;;;;5071046;28;20049;-82
2022/10/13 07:18:35;;;;;;;15.52;6.75;;;9.80;99.90;;;;;;5073424;28;20078;-82
2022/10/13 07:21:05;;;;;;;12.52;6.32;;;9.70;99.90;;;;;;5067616;28;20140;-84
2022/10/13 07:23:33;;;;;;;12.10;5.50;;;9.60;99.90;;;;;;5075942;28;20066;-82
2022/10/13 07:26:00;;;;;;;12.40;6.43;;;9.60;99.90;;;;;;5080024;28;20046;-83
2022/10/13 07:28:27;;;;;;;11.70;6.68;;;9.50;99.90;;;;;;5076740;28;20415;-82
2022/10/13 07:30:58;;;;;;;14.35;7.35;;;9.60;99.90;;;;;;5072411;28;20518;-82
2022/10/13 07:33:28;;;;;;;10.57;6.53;;;9.60;99.90;;;;;;5073388;28;20127;-83
2022/10/13 07:35:59;;;;;;;11.93;6.00;;;9.70;99.90;;;;;;5069400;28;20045;-83
2022/10/13 07:38:28;;;;;;;9.75;6.43;;;9.80;99.90;;;;;;5073307;28;20071;-84
2022/10/13 07:40:55;;;;;;;13.10;5.80;;;10.10;99.90;;;;;;5075591;28;20548;-84
2022/10/13 07:43:23;;;;;;;13.73;6.35;;;10.30;99.90;;;;;;5080379;28;20074;-84
2022/10/13 07:45:51;;;;;;;13.27;6.60;;;10.50;99.90;;;;;;5076822;28;20052;-85
2022/10/13 07:48:21;;;;;;;12.60;6.35;;;10.60;99.90;;;;;;5075100;28;20044;-84
2022/10/13 07:50:48;;;;;;;9.65;3.92;;;11.00;99.90;;;;;;5076915;28;20081;-84
2022/10/13 07:53:16;;;;;;;18.35;4.38;;;12.20;99.90;;;;;;5075511;28;20516;-84
2022/10/13 07:55:45;;;;;;;8.57;3.78;;;13.90;99.90;;;;;;5071207;28;20516;-84
2022/10/13 07:58:12;;;;;;;12.60;4.20;;;15.60;99.90;;;;;;5070809;28;20084;-81
2022/10/13 08:00:40;;;;;;;6.90;3.47;;;16.90;99.90;;;;;;5071778;28;20052;-81
2022/10/13 08:03:08;;;;;;;10.90;4.50;;;17.90;99.90;;;;;;5069882;28;20307;-82
2022/10/13 08:05:37;;;;;;;9.52;4.20;;;18.90;99.90;;;;;;5066161;28;20155;-82
2022/10/13 08:08:05;;;;;;;8.38;3.63;;;19.70;97.90;;;;;;5066802;28;20059;-81
2022/10/13 08:10:32;;;;;;;12.38;3.88;;;20.30;90.50;;;;;;5066819;28;20055;-83
2022/10/13 08:13:01;;;;;;;8.07;3.58;;;20.20;89.60;;;;;;5069185;28;20132;-83
2022/10/13 08:15:29;;;;;;;10.23;3.67;;;20.50;89.00;;;;;;5066593;28;20574;-82
2022/10/13 08:17:56;;;;;;;5.63;2.42;;;21.20;85.50;;;;;;5069204;28;20098;-81
2022/10/13 08:20:25;;;;;;;6.70;2.65;;;21.60;76.30;;;;;;5070129;28;20442;-81
2022/10/13 08:22:52;;;;;;;6.38;2.97;;;22.50;72.70;;;;;;5069679;28;20047;-81
2022/10/13 08:25:19;;;;;;;7.38;3.30;;;22.50;72.40;;;;;;5069878;28;20107;-82
2022/10/13 08:27:47;;;;;;;7.90;3.35;;;22.90;66.90;;;;;;5069608;28;20064;-79
2022/10/13 08:30:15;;;;;;;10.85;3.17;;;22.80;65.50;;;;;;5070613;28;20040;-81
2022/10/13 08:32:42;;;;;;;10.75;4.30;;;22.70;65.60;;;;;;5068947;28;20079;-82
2022/10/13 08:35:10;;;;;;;11.52;3.78;;;22.50;65.20;;;;;;5070956;28;20117;-82
2022/10/13 08:37:37;;;;;;;9.20;3.50;;;22.60;64.80;;;;;;5070665;28;20048;-82
2022/10/13 08:40:06;;;;;;;13.02;3.33;;;23.10;65.10;;;;;;5072306;28;20135;-84
2022/10/13 08:42:34;;;;;;;15.23;3.88;;;23.20;63.80;;;;;;5054963;28;20040;-82
2022/10/13 08:45:04;;;;;;;8.02;3.35;;;23.60;62.70;;;;;;5072489;28;20090;-81
2022/10/13 08:47:41;;;;;;;7.30;3.30;;;23.90;59.30;;;;;;5076259;28;20040;-81
2022/10/13 08:50:14;;;;;;;6.63;3.85;;;24.20;60.20;;;;;;5074470;28;20048;-81
2022/10/13 08:52:48;;;;;;;11.52;3.67;;;24.20;59.90;;;;;;5068440;28;20112;-83
2022/10/13 08:55:23;;;;;;;;;;;23.40;57.90;;;;;;5068608;28;20040;-78
2022/10/13 08:57:51;;;;;;;7.40;3.63;;;23.60;57.40;;;;;;5048216;28;19928;-78
2022/10/13 09:00:20;;;;;;;10.68;4.03;;;23.10;58.90;;;;;;5067915;28;20051;-78
2022/10/13 09:02:51;;;;;;;10.98;3.78;;;23.00;61.00;;;;;;5068117;28;20059;-78
2022/10/13 09:05:27;;;;;;;3.78;1.83;;;23.50;60.50;;;;;;5064905;28;20140;-82
2022/10/13 09:08:00;;;;;;;5.90;2.00;;;24.10;58.20;;;;;;5070035;28;20076;-82
2022/10/13 09:10:27;;;;;;;2.10;1.30;;;24.70;55.60;;;;;;5072053;28;20144;-81
2022/10/13 09:12:57;;;;;;;2.35;1.38;;;24.90;53.70;;;;;;5072975;28;20078;-82
2022/10/13 09:15:24;;;;;;;7.25;2.28;;;24.50;55.30;;;;;;5068739;28;20064;-82
2022/10/13 09:18:09;;;;;;;3.65;2.00;;;23.50;55.20;;;;;;5071504;28;20401;-82
2022/10/13 09:20:38;;;;;;;4.25;1.00;;;22.10;56.20;;;;;;5052561;28;20147;-82
2022/10/13 09:23:16;;;;;;;1.63;1.15;;;20.60;58.70;;;;;;5070599;28;20087;-80
2022/10/13 09:25:46;;;;;;;4.68;1.38;;;19.20;60.20;;;;;;5070242;28;20060;-82
2022/10/13 09:28:24;;;;;;;4.00;1.70;;;18.00;64.90;;;;;;5068136;28;20143;-82
2022/10/13 09:31:02;;;;;;;6.53;1.08;;;17.20;68.00;;;;;;5063541;28;20386;-83
2022/10/13 09:33:35;;;;;;;7.15;3.35;;;16.50;68.00;;;;;;5068443;28;20067;-82
2022/10/13 09:36:10;;;;;;;5.85;1.65;;;16.10;71.40;;;;;;5069914;28;20048;-83
2022/10/13 09:38:39;;;;;;;4.00;1.48;;;15.70;73.20;;;;;;5064848;28;20094;-82
2022/10/13 09:41:21;;;;;;;2.60;1.20;;;15.60;74.20;;;;;;5067844;28;20131;-82
2022/10/13 09:44:04;;;;;;;1.80;1.20;;;15.40;73.40;;;;;;5067251;28;20053;-83
2022/10/13 09:46:36;;;;;;;3.42;1.00;;;15.00;72.90;;;;;;5063399;28;20064;-82
2022/10/13 09:49:08;;;;;;;3.55;1.10;;;15.10;72.50;;;;;;5069738;28;20074;-83
2022/10/13 09:51:39;;;;;;;2.97;0.90;;;15.50;73.90;;;;;;5054344;28;20894;-82
2022/10/13 09:54:27;;;;;;;1.70;1.20;;;15.80;72.00;;;;;;5068267;28;20408;-82
2022/10/13 09:56:59;;;;;;;7.40;2.13;;;16.00;71.70;;;;;;5069191;28;20052;-83
2022/10/13 09:59:33;;;;;;;3.97;1.45;;;16.10;70.60;;;;;;5072944;28;20048;-81
2022/10/13 10:02:11;;;;;;;3.08;1.45;;;16.40;69.80;;;;;;5066906;28;20504;-82
2022/10/13 10:04:42;;;;;;;3.80;0.88;;;16.90;70.40;;;;;;5103501;28;20055;-81
2022/10/13 10:07:12;;;;;;;2.65;1.15;;;17.70;67.90;;;;;;5072658;28;20041;-83
2022/10/13 10:09:44;;;;;;;2.75;1.10;;;18.70;64.60;;;;;;5069725;28;20044;-82
2022/10/13 10:12:18;;;;;;;1.25;1.02;;;20.00;63.20;;;;;;5082388;28;20060;-82
2022/10/13 10:14:47;;;;;;;5.18;1.27;;;21.40;59.30;;;;;;5068750;28;20052;-82
2022/10/13 10:17:24;;;;;;;5.72;1.48;;;22.10;57.10;;;;;;5071843;28;20416;-84
2022/10/13 10:20:01;;;;;;;3.28;1.00;;;22.00;56.50;;;;;;5068497;28;20041;-82
2022/10/13 10:22:37;;;;;;;2.53;0.82;;;21.80;58.20;;;;;;5071643;28;20484;-81
2022/10/13 10:25:18;;;;;;;4.00;0.85;;;20.90;58.00;;;;;;5067555;28;20167;-80
2022/10/13 10:27:51;;;;;;;;;;;19.70;59.10;;;;;;5073198;28;20098;-82
2022/10/13 10:30:21;;;;;;;3.65;1.20;;;18.60;62.50;;;;;;5066511;28;20018;-83
2022/10/13 10:32:54;;;;;;;1.45;1.08;;;17.50;64.20;;;;;;5072073;28;20070;-84
2022/10/13 10:35:39;;;;;;;4.10;1.80;;;17.10;67.30;;;;;;5075480;28;20055;-84
2022/10/13 10:38:20;;;;;;;9.95;1.60;;;17.20;66.20;;;;;;5071164;28;20128;-85
2022/10/13 10:40:55;;;;;;;3.17;1.85;;;18.60;68.10;;;;;;5056348;28;20470;-82
2022/10/13 10:43:37;;;;;;;4.88;1.63;;;20.20;64.40;;;;;;5070233;28;20086;-84
2022/10/13 10:46:13;;;;;;;2.80;1.80;;;21.70;60.40;;;;;;5064269;28;20053;-83
2022/10/13 10:48:42;;;;;;;2.50;0.80;;;21.80;55.90;;;;;;5074347;28;20041;-83
2022/10/13 10:51:12;;;;;;;2.75;1.10;;;21.10;58.10;;;;;;5073005;28;20040;-81
2022/10/13 10:53:56;;;;;;;2.17;0.47;;;20.30;58.50;;;;;;5055168;28;20083;-83
2022/10/13 10:56:32;;;;;;;4.15;0.60;;;19.40;57.90;;;;;;5066289;28;20044;-81
2022/10/13 10:59:22;;;;;;;4.63;1.13;;;18.40;60.00;;;;;;5067803;28;20413;-83
2022/10/13 11:01:56;;;;;;;1.38;0.70;;;17.90;62.40;;;;;;5081002;28;20045;-83
2022/10/13 11:04:39;;;;;;;0.93;0.60;;;17.70;64.40;;;;;;5069029;28;20048;-85
2022/10/13 11:07:13;;;;;;;2.03;0.60;;;17.70;63.00;;;;;;5067329;28;20045;-81
2022/10/13 11:10:04;;;;;;;3.80;0.93;;;17.70;61.30;;;;;;5070733;28;20036;-79
2022/10/13 11:13:21;;;;;;;2.57;0.90;;;17.90;62.60;;;;;;5067796;28;20531;-80
2022/10/13 11:15:48;;;;;;;2.90;0.90;;;17.60;63.20;;;;;;5001628;28;20054;-81
2022/10/13 11:18:57;;;;;;;2.00;0.85;;;17.40;63.30;;;;;;5062630;28;20068;-80
2022/10/13 11:22:13;;;;;;;2.03;1.15;;;17.40;65.30;;;;;;5064569;28;20044;-80
2022/10/13 11:25:24;;;;;;;4.57;1.00;;;16.80;64.40;;;;;;5067991;28;20040;-80
2022/10/13 11:27:51;;;;;;;1.55;1.00;;;16.90;66.20;;;;;;5068539;28;20123;-82
2022/10/13 11:30:48;;;;;;;3.13;2.10;;;17.70;65.20;;;;;;5065875;28;20520;-82
2022/10/13 11:33:51;;;;;;;2.42;1.40;;;19.50;60.20;;;;;;5068378;28;20135;-81
2022/10/13 11:36:51;;;;;;;5.88;1.33;;;20.80;58.10;;;;;;5066959;28;20052;-81
2022/10/13 11:39:58;;;;;;;1.83;1.25;;;20.60;58.10;;;;;;5065582;28;20561;-77
2022/10/13 11:42:57;;;;;;;4.47;2.30;;;20.20;59.00;;;;;;5066124;28;20087;-82
2022/10/13 11:46:00;;;;;;;4.30;1.65;;;19.70;58.80;;;;;;5011906;28;20064;-79
2022/10/13 11:48:59;;;;;;;2.80;1.70;;;19.40;59.80;;;;;;5047844;28;20071;-80
2022/10/13 11:51:42;;;;;;;4.65;1.73;;;19.30;60.60;;;;;;5065037;28;20044;-78
2022/10/13 11:54:22;;;;;;;4.13;1.88;;;19.40;58.40;;;;;;5067913;28;20137;-80
2022/10/13 11:56:56;;;;;;;5.05;1.67;;;19.00;62.30;;;;;;5064782;28;20102;-83
2022/10/13 11:59:25;;;;;;;5.13;2.28;;;18.50;63.00;;;;;;5055802;28;20071;-82
2022/10/13 12:01:54;;;;;;;2.60;1.30;;;18.40;61.60;;;;;;5069948;28;21059;-82
2022/10/13 12:04:23;;;;;;;3.40;1.40;;;18.30;60.50;;;;;;5074338;28;20078;-84
2022/10/13 12:06:57;;;;;;;9.55;1.73;;;18.00;61.70;;;;;;5065909;28;20075;-83
2022/10/13 12:09:25;;;;;;;4.88;1.67;;;18.10;64.20;;;;;;5073552;28;20048;-83
2022/10/13 12:12:03;;;;;;;3.63;1.60;;;18.10;62.90;;;;;;5074860;28;20618;-77
2022/10/13 12:14:37;;;;;;;9.45;2.03;;;18.00;62.30;;;;;;5069827;28;20131;-79
2022/10/13 12:17:18;;;;;;;4.18;1.50;;;18.00;61.10;;;;;;5070264;28;20098;-79
2022/10/13 12:19:45;;;;;;;3.97;1.27;;;18.10;61.50;;;;;;5068692;28;20495;-78
2022/10/13 12:22:13;;;;;;;6.93;1.50;;;17.80;63.50;;;;;;5067565;28;20394;-79
2022/10/13 12:24:43;;;;;;;4.38;1.20;;;17.50;65.90;;;;;;5069869;28;20095;-80
2022/10/13 12:27:21;;;;;;;6.28;1.42;;;17.20;63.50;;;;;;5068141;28;20040;-79
2022/10/13 12:29:48;;;;;;;6.20;2.63;;;16.80;63.50;;;;;;5086397;28;20032;-82
2022/10/13 12:32:20;;;;;;;4.47;1.45;;;16.60;63.40;;;;;;5072746;28;20049;-84
2022/10/13 12:34:48;;;;;;;2.35;1.38;;;16.00;64.10;;;;;;5077606;28;20044;-85
2022/10/13 12:37:26;;;;;;;4.53;1.45;;;15.70;65.80;;;;;;5074526;28;20048;-86
2022/10/13 12:39:53;;;;;;;7.28;3.22;;;15.40;66.60;;;;;;5057344;28;20051;-83
2022/10/13 12:42:30;;;;;;;7.13;2.05;;;15.00;69.20;;;;;;5075049;28;20052;-83
2022/10/13 12:44:59;;;;;;;3.92;1.40;;;14.80;70.20;;;;;;5078349;28;20045;-86
2022/10/13 12:47:39;;;;;;;3.65;1.52;;;14.60;71.70;;;;;;5073749;28;20060;-81
2022/10/13 12:50:32;;;;;;;4.35;1.50;;;14.70;71.70;;;;;;5072102;28;20056;-81
2022/10/13 12:53:15;;;;;;;3.60;1.30;;;14.90;72.90;;;;;;5062749;28;20490;-84
2022/10/13 12:55:49;;;;;;;3.20;2.20;;;14.90;72.60;;;;;;5073694;28;20427;-82
2022/10/13 12:58:24;;;;;;;3.05;1.10;;;15.20;74.70;;;;;;5070843;28;20275;-85
2022/10/13 13:01:08;;;;;;;1.33;1.08;;;15.30;72.50;;;;;;5065970;28;20420;-86
2022/10/13 13:03:37;;;;;;;2.38;1.10;;;14.90;73.10;;;;;;5072837;28;20052;-82
2022/10/13 13:06:32;;;;;;;2.38;1.80;;;14.30;75.60;;;;;;5068359;28;20032;-86
2022/10/13 13:09:20;;;;;;;3.47;1.15;;;13.80;77.40;;;;;;5065645;28;20037;-82
2022/10/13 13:11:48;;;;;;;4.15;1.55;;;13.40;78.70;;;;;;5067516;28;20047;-85
2022/10/13 13:14:38;;;;;;;6.93;1.70;;;13.10;80.60;;;;;;5065711;28;20048;-84